createdAt,value
2019-02-06T00:01:17.928Z,28.60
2019-02-06T00:05:21.471Z,29.03
2019-02-06T00:09:24.912Z,30.07
2019-02-06T00:13:47.717Z,27.97
2019-02-06T00:17:51.264Z,29.67
2019-02-06T00:21:54.789Z,27.60
2019-02-06T00:25:58.235Z,27.17
2019-02-06T00:30:01.753Z,27.60
2019-02-06T00:34:05.261Z,26.87
2019-02-06T00:38:09.364Z,27.60
2019-02-06T00:42:12.791Z,28.53
2019-02-06T00:46:16.238Z,26.47
2019-02-06T00:50:19.741Z,27.30
2019-02-06T00:54:23.177Z,26.37
2019-02-06T00:58:26.601Z,27.87
2019-02-06T01:02:30.134Z,27.67
2019-02-06T01:06:33.790Z,27.53
2019-02-06T01:10:37.932Z,26.67
2019-02-06T01:14:42.079Z,26.40
2019-02-06T01:18:45.504Z,26.87
2019-02-06T01:22:48.947Z,26.23
2019-02-06T01:26:52.381Z,27.57
2019-02-06T01:30:57.456Z,26.27
2019-02-06T01:35:00.893Z,26.07
2019-02-06T01:39:08.760Z,26.37
2019-02-06T01:43:12.267Z,27.50
2019-02-06T01:47:16.280Z,26.53
2019-02-06T01:51:19.726Z,26.13
2019-02-06T01:55:23.170Z,26.83
2019-02-06T01:59:26.588Z,25.70
2019-02-06T02:03:30.040Z,26.37
2019-02-06T02:07:33.476Z,26.77
2019-02-06T02:11:36.917Z,26.50
2019-02-06T02:15:40.348Z,27.60
2019-02-06T02:19:43.776Z,28.93
2019-02-06T02:23:47.228Z,27.87
2019-02-06T02:27:50.731Z,27.83
2019-02-06T02:31:54.312Z,28.20
2019-02-06T02:35:57.905Z,27.33
2019-02-06T02:40:01.655Z,25.73
2019-02-06T02:44:05.260Z,26.43
2019-02-06T02:48:09.622Z,26.87
2019-02-06T02:52:13.151Z,25.30
2019-02-06T02:56:17.005Z,25.23
2019-02-06T03:00:23.145Z,25.87
2019-02-06T03:04:27.855Z,26.43
2019-02-06T03:08:31.286Z,25.57
2019-02-06T03:12:34.721Z,25.80
2019-02-06T03:16:38.239Z,26.43
2019-02-06T03:20:41.749Z,26.27
2019-02-06T03:24:45.184Z,28.37
2019-02-06T03:28:48.625Z,28.87
2019-02-06T03:32:52.057Z,28.57
2019-02-06T03:36:55.489Z,27.93
2019-02-06T03:40:58.924Z,27.63
2019-02-06T03:45:02.377Z,28.17
2019-02-06T03:49:05.804Z,29.13
2019-02-06T03:53:09.287Z,28.67
2019-02-06T03:57:14.398Z,27.83
2019-02-06T04:01:17.831Z,28.80
2019-02-06T04:05:21.341Z,27.60
2019-02-06T04:09:24.771Z,28.67
2019-02-06T04:13:28.212Z,27.17
2019-02-06T04:17:31.632Z,27.57
2019-02-06T04:21:35.068Z,27.27
2019-02-06T04:25:38.512Z,28.47
2019-02-06T04:29:41.954Z,26.67
2019-02-06T04:33:45.405Z,28.50
2019-02-06T04:37:48.837Z,28.07
2019-02-06T04:41:52.277Z,28.57
2019-02-06T04:45:55.712Z,28.80
2019-02-06T04:49:59.157Z,26.87
2019-02-06T04:54:02.658Z,28.07
2019-02-06T04:58:06.085Z,27.67
2019-02-06T05:02:09.530Z,28.30
2019-02-06T05:06:13.026Z,29.77
2019-02-06T05:10:16.696Z,28.53
2019-02-06T05:14:20.503Z,28.27
2019-02-06T05:18:23.947Z,27.80
2019-02-06T05:22:27.648Z,28.80
2019-02-06T05:26:31.097Z,28.90
2019-02-06T05:30:34.524Z,27.97
2019-02-06T05:34:37.954Z,28.63
2019-02-06T05:38:41.388Z,28.10
2019-02-06T05:42:45.103Z,27.53
2019-02-06T05:46:48.530Z,27.37
2019-02-06T05:50:52.023Z,27.57
2019-02-06T05:54:55.457Z,27.07
2019-02-06T05:58:58.892Z,28.50
2019-02-06T06:03:02.396Z,28.17
2019-02-06T06:07:05.901Z,27.13
2019-02-06T06:11:09.318Z,28.17
2019-02-06T06:15:15.168Z,27.83
2019-02-06T06:19:18.616Z,26.73
2019-02-06T06:23:22.039Z,28.10
2019-02-06T06:27:25.478Z,27.40
2019-02-06T06:31:29.072Z,28.13
2019-02-06T06:35:32.595Z,27.20
2019-02-06T06:39:36.032Z,27.20
2019-02-06T06:43:39.463Z,27.70
2019-02-06T06:47:42.893Z,25.53
2019-02-06T06:51:46.347Z,26.97
2019-02-06T06:55:50.359Z,27.37
2019-02-06T06:59:55.646Z,26.60
2019-02-06T07:03:58.972Z,27.70
2019-02-06T07:08:09.606Z,26.67
2019-02-06T07:12:07.637Z,25.90
2019-02-06T07:16:11.067Z,27.63
2019-02-06T07:20:17.152Z,27.40
2019-02-06T07:24:20.592Z,27.50
2019-02-06T07:28:24.012Z,26.80
2019-02-06T07:32:27.446Z,26.33
2019-02-06T07:36:30.894Z,26.10
2019-02-06T07:40:34.328Z,26.37
2019-02-06T07:44:37.756Z,27.47
2019-02-06T07:48:41.185Z,25.70
2019-02-06T07:52:44.702Z,25.03
2019-02-06T07:56:48.831Z,25.97
2019-02-06T08:00:52.260Z,26.13
2019-02-06T08:04:56.060Z,24.27
2019-02-06T08:08:59.501Z,25.10
2019-02-06T08:13:04.087Z,24.87
2019-02-06T08:17:07.705Z,25.33
2019-02-06T08:21:11.136Z,24.87
2019-02-06T08:25:17.096Z,26.03
2019-02-06T08:29:20.536Z,24.80
2019-02-06T08:33:23.968Z,25.27
2019-02-06T08:37:27.408Z,26.60
2019-02-06T08:41:30.854Z,24.23
2019-02-06T08:45:34.278Z,24.47
2019-02-06T08:49:37.775Z,24.17
2019-02-06T08:53:41.219Z,24.10
2019-02-06T08:57:44.833Z,25.50
2019-02-06T09:01:48.274Z,24.27
2019-02-06T09:05:52.362Z,24.73
2019-02-06T09:09:55.805Z,24.17
2019-02-06T09:13:59.537Z,24.40
2019-02-06T09:18:03.171Z,24.27
2019-02-06T09:22:06.703Z,24.33
2019-02-06T09:26:10.192Z,23.73
2019-02-06T09:30:22.329Z,23.83
2019-02-06T09:34:25.762Z,24.00
2019-02-06T09:38:29.252Z,23.40
2019-02-06T09:42:32.688Z,23.53
2019-02-06T09:46:36.128Z,23.83
2019-02-06T09:50:41.107Z,23.50
2019-02-06T09:54:44.608Z,23.97
2019-02-06T09:58:48.197Z,23.50
2019-02-06T10:02:53.208Z,24.47
2019-02-06T10:06:57.225Z,23.17
2019-02-06T10:11:00.969Z,23.33
2019-02-06T10:15:07.385Z,23.73
2019-02-06T10:19:11.121Z,23.30
2019-02-06T10:23:14.691Z,23.90
2019-02-06T10:27:18.116Z,23.23
2019-02-06T10:31:21.684Z,23.47
2019-02-06T10:35:25.199Z,23.13
2019-02-06T10:39:34.675Z,25.27
2019-02-06T10:43:35.929Z,23.90
2019-02-06T10:47:39.008Z,22.87
2019-02-06T10:51:42.586Z,22.90
2019-02-06T10:55:46.286Z,22.67
2019-02-06T10:59:49.768Z,22.77
2019-02-06T11:03:53.212Z,22.60
2019-02-06T11:07:57.280Z,22.27
2019-02-06T11:12:00.778Z,23.10
2019-02-06T11:16:04.401Z,23.27
2019-02-06T11:20:15.379Z,22.77
2019-02-06T11:24:19.011Z,23.00
2019-02-06T11:28:22.537Z,21.67
2019-02-06T11:32:26.091Z,22.93
2019-02-06T11:36:29.598Z,22.73
2019-02-06T11:40:33.587Z,23.87
2019-02-06T11:44:37.099Z,23.53
2019-02-06T11:48:43.321Z,23.33
2019-02-06T11:52:45.943Z,23.77
2019-02-06T11:56:49.447Z,23.27
2019-02-06T12:01:10.159Z,22.40
2019-02-06T12:05:14.018Z,22.83
2019-02-06T12:09:17.462Z,22.60
2019-02-06T12:13:20.891Z,22.00
2019-02-06T12:17:24.335Z,23.43
2019-02-06T12:21:27.771Z,22.20
2019-02-06T12:25:34.258Z,21.97
2019-02-06T12:29:36.358Z,21.00
2019-02-06T12:33:39.796Z,20.93
2019-02-06T12:37:43.712Z,20.13
2019-02-06T12:42:06.500Z,22.07
2019-02-06T12:46:09.917Z,22.00
2019-02-06T12:50:21.540Z,20.70
2019-02-06T12:54:25.039Z,21.07
2019-02-06T12:58:28.488Z,20.07
2019-02-06T13:02:31.925Z,20.10
2019-02-06T13:06:35.356Z,20.03
2019-02-06T13:10:38.857Z,20.10
2019-02-06T13:14:42.301Z,21.00
2019-02-06T13:18:45.741Z,20.80
2019-02-06T13:22:49.307Z,21.63
2019-02-06T13:26:55.661Z,20.17
2019-02-06T13:30:59.631Z,21.80
2019-02-06T13:35:03.868Z,20.63
2019-02-06T13:39:10.014Z,20.23
2019-02-06T13:43:13.715Z,20.67
2019-02-06T13:47:18.498Z,19.90
2019-02-06T13:51:22.059Z,21.23
2019-02-06T13:55:26.253Z,20.63
2019-02-06T13:59:29.865Z,18.63
2019-02-06T14:03:33.464Z,19.90
2019-02-06T14:07:38.507Z,20.53
2019-02-06T14:11:42.064Z,20.50
2019-02-06T14:15:48.178Z,20.73
2019-02-06T14:19:51.769Z,20.47
2019-02-06T14:23:58.334Z,19.20
2019-02-06T14:28:13.909Z,19.70
2019-02-06T14:32:26.371Z,19.23
2019-02-06T14:36:33.261Z,19.10
2019-02-06T14:40:45.852Z,19.07
2019-02-06T14:45:07.415Z,19.97
2019-02-06T14:49:22.151Z,19.80
2019-02-06T14:53:28.702Z,19.87
2019-02-06T14:57:41.386Z,18.70
2019-02-06T15:02:13.448Z,20.10
2019-02-06T15:06:31.467Z,21.60
2019-02-06T15:10:50.013Z,20.03
2019-02-06T15:15:12.960Z,19.77
2019-02-06T15:19:31.227Z,19.83
2019-02-06T15:23:46.425Z,18.43
2019-02-06T15:28:01.808Z,19.17
2019-02-06T15:32:32.492Z,19.57
2019-02-06T15:36:57.072Z,20.10
2019-02-06T15:41:31.158Z,20.60
2019-02-06T15:45:35.464Z,20.23
2019-02-06T15:49:50.970Z,19.87
2019-02-06T15:54:03.252Z,21.67
2019-02-06T15:58:18.833Z,19.77
2019-02-06T16:02:34.717Z,20.83
2019-02-06T16:06:59.304Z,20.17
2019-02-06T16:11:17.501Z,20.23
2019-02-06T16:15:24.011Z,25.82
2019-02-06T16:20:05.642Z,22.90
2019-02-06T16:24:15.839Z,21.13
2019-02-06T16:28:24.923Z,21.23
2019-02-06T16:32:34.080Z,21.37
2019-02-06T16:36:43.449Z,21.17
2019-02-06T16:40:58.559Z,22.10
2019-02-06T16:45:16.948Z,21.93
2019-02-06T16:49:26.050Z,21.63
2019-02-06T16:54:02.646Z,24.27
2019-02-06T16:58:35.223Z,20.60
2019-02-06T17:03:03.187Z,21.73
2019-02-06T17:07:15.227Z,22.83
2019-02-06T17:11:43.736Z,22.97
2019-02-06T17:16:05.680Z,45.80
2019-02-06T17:20:30.474Z,23.47
2019-02-06T17:24:49.105Z,22.77
2019-02-06T17:28:55.637Z,24.20
2019-02-06T17:33:20.456Z,22.97
2019-02-06T17:37:29.625Z,22.23
2019-02-06T17:41:39.069Z,23.17
2019-02-06T17:45:51.328Z,23.60
2019-02-06T17:50:23.296Z,23.27
2019-02-06T17:54:53.603Z,22.93
2019-02-06T17:58:57.026Z,25.20
2019-02-06T18:03:04.194Z,25.33
2019-02-06T18:07:07.732Z,24.87
2019-02-06T18:11:11.848Z,25.37
2019-02-06T18:15:15.748Z,25.70
2019-02-06T18:19:19.198Z,24.93
2019-02-06T18:23:22.641Z,25.63
2019-02-06T18:27:26.155Z,26.50
2019-02-06T18:31:29.736Z,26.00
2019-02-06T18:35:33.174Z,25.97
2019-02-06T18:39:36.858Z,25.93
2019-02-06T18:43:40.329Z,26.60
2019-02-06T18:47:43.967Z,27.17
2019-02-06T18:51:47.478Z,28.00
2019-02-06T18:55:51.364Z,25.33
2019-02-06T18:59:55.185Z,29.80
2019-02-06T19:04:00.421Z,27.77
2019-02-06T19:08:04.794Z,29.17
2019-02-06T19:12:08.377Z,30.53
2019-02-06T19:16:11.812Z,29.13
2019-02-06T19:20:17.460Z,29.33
2019-02-06T19:24:20.902Z,25.83
2019-02-06T19:28:24.479Z,25.63
2019-02-06T19:32:27.994Z,23.57
2019-02-06T19:36:31.504Z,26.27
2019-02-06T19:40:35.144Z,25.40
2019-02-06T19:44:38.584Z,27.47
2019-02-06T19:48:42.027Z,29.93
2019-02-06T19:52:45.469Z,29.07
2019-02-06T19:56:49.019Z,28.77
2019-02-06T20:00:52.494Z,28.27
2019-02-06T20:04:56.004Z,29.40
2019-02-06T20:08:59.594Z,30.53
2019-02-06T20:13:10.561Z,30.30
2019-02-06T20:17:08.264Z,29.97
2019-02-06T20:21:11.765Z,29.20
2019-02-06T20:25:15.714Z,30.80
2019-02-06T20:29:19.305Z,34.97
2019-02-06T20:33:22.825Z,30.53
2019-02-06T20:37:26.270Z,29.27
2019-02-06T20:41:29.696Z,30.07
2019-02-06T20:45:33.272Z,39.85
2019-02-06T20:49:36.857Z,33.40
2019-02-06T20:53:40.318Z,31.67
2019-02-06T20:57:43.748Z,29.80
2019-02-06T21:01:47.204Z,29.30
2019-02-06T21:05:50.652Z,32.43
2019-02-06T21:09:54.933Z,39.07
2019-02-06T21:13:58.380Z,38.67
2019-02-06T21:18:01.869Z,31.50
2019-02-06T21:22:05.517Z,40.07
2019-02-06T21:26:08.965Z,29.90
2019-02-06T21:30:18.591Z,27.10
2019-02-06T21:34:22.033Z,28.23
2019-02-06T21:38:26.032Z,29.23
2019-02-06T21:42:29.464Z,28.90
2019-02-06T21:46:32.913Z,30.10
2019-02-06T21:50:36.376Z,27.70
2019-02-06T21:54:39.889Z,28.53
2019-02-06T21:58:43.380Z,22.67
2019-02-06T22:02:46.829Z,23.33
2019-02-06T22:06:50.332Z,21.93
2019-02-06T22:10:53.765Z,22.10
2019-02-06T22:14:57.197Z,21.67
2019-02-06T22:19:00.625Z,20.93
2019-02-06T22:23:04.139Z,20.87
2019-02-06T22:27:07.660Z,20.50
2019-02-06T22:31:11.541Z,22.77
2019-02-06T22:35:15.506Z,21.50
2019-02-06T22:39:19.390Z,21.67
2019-02-06T22:43:22.824Z,23.10
2019-02-06T22:47:26.263Z,22.50
2019-02-06T22:51:29.695Z,23.00
2019-02-06T22:55:33.125Z,21.73
2019-02-06T22:59:36.560Z,21.30
2019-02-06T23:03:39.991Z,21.43
2019-02-06T23:07:43.508Z,21.73
2019-02-06T23:11:46.949Z,20.87
2019-02-06T23:15:50.441Z,21.70
2019-02-06T23:19:53.885Z,22.17
2019-02-06T23:23:57.386Z,22.33
2019-02-06T23:28:00.812Z,21.70
2019-02-06T23:32:05.011Z,21.43
2019-02-06T23:36:08.620Z,21.20
2019-02-06T23:40:16.545Z,22.07
2019-02-06T23:44:28.560Z,22.33
2019-02-06T23:48:25.218Z,22.90
2019-02-06T23:52:28.646Z,21.57
2019-02-06T23:56:32.069Z,21.67
